Sammamish, Washington
Current Conditions -  °F | °C
As of 11:53 AM on Monday 22 Dec 2014 (Local Time) from KRNT Reporting Station
Broken Clouds Broken Clouds  
Wind Chill: 50°   Ceiling: 3900
Heat Index: 50°   Visibility: 10mi
Dew Point: 40°   Wind: 3mph
Humidity: 68%   Direction: 180°S
Pressure: 30.36"   Gusts: NA
Location:  47.63°N, 122.03°W
Report Text: KRNT 221953Z 18003KT 10SM BKN039 10/04 A3036 RMK AO2 SLP285 T01000044
Loading
Personal Weather Stations






























Interactive Weather Map New forecast layout! Learn more

10-Day Weather Forecast

Advertisements
Track Severe Weather on mobile